Time;durP1;ratioP1;P1;durP2;ratioP2;P2;SDS_P1;SDS_P2;PMS_P1;PMS_P2;Temp;Humidity;BMP_temperature;BMP_pressure;BME280_temperature;BME280_humidity;BME280_pressure;Samples;Min_cycle;Max_cycle;Signal;HPM_P1;HPM_P2
2022/01/03 00:00:49;;;;;;;16.65;9.68;;;;;;;6.89;77.75;99191.47;4291614;33;35823;-78
2022/01/03 00:03:19;;;;;;;16.37;9.20;;;;;;;6.45;78.17;99179.28;4303521;33;34490;-77
2022/01/03 00:05:48;;;;;;;12.65;8.90;;;;;;;6.40;79.39;99176.69;4304228;33;34171;-77
2022/01/03 00:08:18;;;;;;;18.58;8.55;;;;;;;6.62;79.39;99172.44;4289803;33;34015;-74
2022/01/03 00:10:47;;;;;;;16.75;9.38;;;;;;;6.44;79.82;99185.31;4303060;33;35025;-77
2022/01/03 00:13:19;;;;;;;20.52;10.55;;;;;;;6.60;79.54;99189.69;4281789;33;33236;-77
2022/01/03 00:15:48;;;;;;;14.10;8.45;;;;;;;6.56;79.42;99187.09;4289810;33;33474;-77
2022/01/03 00:18:16;;;;;;;18.12;10.02;;;;;;;6.56;78.84;99182.75;4295274;33;33871;-77
2022/01/03 00:20:57;;;;;;;23.60;10.88;;;;;;;6.66;78.32;99178.50;4291105;33;35227;-77
2022/01/03 00:23:28;;;;;;;19.75;10.65;;;;;;;6.46;78.36;99173.28;4301158;33;34382;-77
2022/01/03 00:25:59;;;;;;;20.15;9.15;;;;;;;6.78;76.32;99178.53;4290383;33;33658;-77
2022/01/03 00:28:40;;;;;;;14.07;8.07;;;;;;;6.96;74.52;99172.50;4303363;33;34856;-77
2022/01/03 00:31:08;;;;;;;16.92;9.95;;;;;;;6.54;74.47;99174.12;4291134;33;35165;-76
2022/01/03 00:33:37;;;;;;;17.52;10.05;;;;;;;5.94;76.93;99170.44;4290037;33;34452;-77
2022/01/03 00:36:07;;;;;;;18.08;9.38;;;;;;;5.66;78.97;99170.25;4290909;33;33982;-74
2022/01/03 00:38:35;;;;;;;19.33;9.82;;;;;;;5.46;81.58;99168.41;4278246;33;33216;-75
2022/01/03 00:41:04;;;;;;;15.45;8.25;;;;;;;6.34;79.69;99160.31;4278969;33;34311;-78
2022/01/03 00:43:32;;;;;;;14.87;8.55;;;;;;;6.63;78.06;99160.38;4282705;33;33998;-77
2022/01/03 00:46:01;;;;;;;17.45;9.00;;;;;;;6.78;75.42;99167.31;4289405;33;34125;-77
2022/01/03 00:48:32;;;;;;;17.90;8.23;;;;;;;6.26;76.75;99157.66;4282513;33;33994;-77
2022/01/03 00:51:03;;;;;;;20.12;10.15;;;;;;;5.90;77.59;99169.56;4302925;33;34400;-77
2022/01/03 00:53:32;;;;;;;15.57;8.18;;;;;;;6.48;76.16;99168.06;4302874;33;34570;-77
2022/01/03 00:56:05;;;;;;;17.40;8.57;;;;;;;5.77;78.75;99158.28;4290967;33;34373;-78
2022/01/03 00:58:57;;;;;;;11.55;6.40;;;;;;;6.63;76.21;99168.13;4290309;33;34735;-77
2022/01/03 01:01:26;;;;;;;10.88;5.80;;;;;;;5.76;81.05;99166.88;4303016;33;35977;-78
2022/01/03 01:03:56;;;;;;;7.37;4.37;;;;;;;6.30;80.33;99168.88;4282065;33;34472;-77
2022/01/03 01:06:25;;;;;;;7.22;4.37;;;;;;;6.69;78.94;99169.84;4264505;33;33061;-77
2022/01/03 01:08:55;;;;;;;4.87;3.47;;;;;;;6.73;77.20;99166.44;4296633;33;33941;-77
2022/01/03 01:11:30;;;;;;;8.82;3.90;;;;;;;6.68;77.74;99165.56;4290617;33;35902;-77
2022/01/03 01:13:59;;;;;;;7.07;4.40;;;;;;;6.72;77.90;99162.97;4289964;33;35174;-77
2022/01/03 01:16:28;;;;;;;8.02;4.22;;;;;;;7.43;76.43;99159.56;4302515;33;33503;-77
2022/01/03 01:18:56;;;;;;;10.65;4.50;;;;;;;8.02;73.09;99163.75;4289372;33;34019;-73
2022/01/03 01:21:25;;;;;;;7.28;3.87;;;;;;;8.47;70.46;99167.06;4304960;33;35885;-77
2022/01/03 01:23:57;;;;;;;7.22;4.22;;;;;;;8.78;67.63;99166.88;4292033;33;33650;-73
2022/01/03 01:29:13;;;;;;;5.20;3.03;;;;;;;9.65;62.95;99148.84;4304786;33;34017;-77
2022/01/03 01:31:48;;;;;;;5.70;3.22;;;;;;;10.09;61.50;99142.28;4305769;33;35881;-76
2022/01/03 01:34:23;;;;;;;6.50;3.12;;;;;;;10.19;60.43;99143.91;4282905;33;34491;-75
2022/01/03 01:36:54;;;;;;;4.87;2.95;;;;;;;10.58;59.11;99140.84;4278277;33;33429;-76
2022/01/03 01:39:26;;;;;;;5.95;3.10;;;;;;;11.00;57.58;99133.28;4300558;33;34192;-76
2022/01/03 01:42:01;;;;;;;6.25;3.97;;;;;;;11.25;57.21;99130.28;4305354;33;34951;-77
2022/01/03 01:44:33;;;;;;;7.03;3.83;;;;;;;11.34;56.33;99132.72;4291915;33;35262;-77
2022/01/03 01:47:04;;;;;;;5.82;3.72;;;;;;;11.23;56.12;99126.84;4291745;33;33510;-76
2022/01/03 01:49:47;;;;;;;8.77;3.90;;;;;;;11.32;56.16;99126.66;4301203;33;33818;-77
2022/01/03 01:52:18;;;;;;;6.82;3.65;;;;;;;11.08;56.52;99121.00;4304534;33;35885;-77
2022/01/03 01:54:56;;;;;;;8.02;3.75;;;;;;;11.59;55.85;99122.69;4291703;33;35444;-76
2022/01/03 01:57:47;;;;;;;7.57;4.30;;;;;;;11.48;55.72;99122.91;4305335;33;33460;-76
2022/01/03 02:00:17;;;;;;;9.57;3.87;;;;;;;11.50;55.47;99128.94;4305289;33;33945;-74
2022/01/03 02:03:13;;;;;;;8.98;3.42;;;;;;;11.40;55.63;99127.41;4292562;33;35909;-77
2022/01/03 02:05:44;;;;;;;5.78;3.37;;;;;;;11.18;55.70;99125.16;4302864;33;34481;-75
2022/01/03 02:08:21;;;;;;;6.28;3.20;;;;;;;11.51;54.95;99138.50;4291694;33;34328;-73
2022/01/03 02:10:58;;;;;;;6.28;3.47;;;;;;;11.37;55.04;99137.88;4304781;33;34780;-77
2022/01/03 02:13:28;;;;;;;5.75;3.47;;;;;;;11.10;55.70;99133.97;4291683;33;36004;-74
2022/01/03 02:16:03;;;;;;;7.25;3.58;;;;;;;11.15;55.22;99133.03;4304324;33;34411;-75
2022/01/03 02:18:32;;;;;;;6.18;3.25;;;;;;;11.64;54.34;99127.84;4303279;33;33480;-78
2022/01/03 02:21:02;;;;;;;7.22;4.07;;;;;;;11.61;54.49;99130.50;4305223;33;33874;-78
2022/01/03 02:23:31;;;;;;;7.15;3.62;;;;;;;12.10;53.23;99121.75;4304575;33;35049;-76
2022/01/03 02:26:00;;;;;;;7.05;3.37;;;;;;;11.26;55.03;99121.56;4292545;33;35210;-77
2022/01/03 02:28:28;;;;;;;6.97;3.03;;;;;;;11.78;53.65;99102.34;4289667;33;33454;-77
2022/01/03 02:30:57;;;;;;;5.62;3.12;;;;;;;11.19;54.90;99119.06;4291876;33;33293;-76
2022/01/03 02:33:26;;;;;;;4.53;2.87;;;;;;;11.23;55.35;99109.44;4304274;33;34704;-76
2022/01/03 02:35:54;;;;;;;7.65;3.42;;;;;;;11.69;53.94;99124.25;4305286;33;34396;-77
2022/01/03 02:38:23;;;;;;;5.93;2.92;;;;;;;11.28;55.17;99107.63;4304554;33;33422;-76
2022/01/03 02:40:51;;;;;;;5.20;3.05;;;;;;;11.10;55.76;99108.78;4292080;33;33784;-76
2022/01/03 02:43:18;;;;;;;6.62;3.40;;;;;;;11.53;54.54;99086.31;4303635;33;34935;-76
2022/01/03 02:45:47;;;;;;;5.97;2.92;;;;;;;11.89;53.75;99095.16;4305010;33;34381;-73
2022/01/03 02:48:15;;;;;;;10.18;3.42;;;;;;;11.94;53.65;99082.06;4289995;33;32657;-76
2022/01/03 02:50:42;;;;;;;9.50;3.85;;;;;;;11.77;55.10;99111.09;4291035;33;34618;-78
2022/01/03 02:53:11;;;;;;;6.85;3.83;;;;;;;11.65;55.68;99114.78;4291524;33;35131;-74
2022/01/03 02:55:40;;;;;;;6.50;3.60;;;;;;;11.42;55.66;99102.16;4292044;33;34372;-75
2022/01/03 02:58:08;;;;;;;5.55;3.67;;;;;;;11.77;54.70;99092.81;4291302;33;33529;-74
2022/01/03 03:00:47;;;;;;;7.70;3.20;;;;;;;10.95;57.34;99114.25;4280567;33;33947;-74
2022/01/03 03:03:20;;;;;;;4.97;3.10;;;;;;;10.96;56.59;99111.63;4291060;33;35200;-77
2022/01/03 03:05:50;;;;;;;6.93;3.50;;;;;;;10.92;56.79;99115.16;4292124;33;34506;-76
2022/01/03 03:08:18;;;;;;;7.32;3.75;;;;;;;11.20;56.60;99135.56;4291079;33;34184;-77
2022/01/03 03:10:47;;;;;;;7.12;3.58;;;;;;;11.26;56.00;99114.59;4292226;33;33868;-77
2022/01/03 03:13:15;;;;;;;7.93;4.00;;;;;;;11.18;56.25;99111.25;4304395;33;35940;-74
2022/01/03 03:15:44;;;;;;;7.90;4.00;;;;;;;10.99;56.95;99115.91;4289532;33;35103;-77
2022/01/03 03:18:13;;;;;;;8.70;4.40;;;;;;;10.94;57.39;99112.50;4290852;33;33434;-76
2022/01/03 03:20:43;;;;;;;7.72;5.05;;;;;;;10.64;57.89;99101.69;4303531;33;34061;-76
2022/01/03 03:23:12;;;;;;;10.15;5.10;;;;;;;10.81;58.12;99112.72;4304536;33;34368;-73
2022/01/03 03:25:40;;;;;;;12.57;6.10;;;;;;;10.58;58.75;99109.59;4277952;33;34588;-76
2022/01/03 03:28:13;;;;;;;10.27;5.20;;;;;;;9.11;63.76;99118.19;4277696;33;33473;-74
2022/01/03 03:30:44;;;;;;;9.77;5.35;;;;;;;9.15;64.25;99104.28;4291502;33;33628;-75
2022/01/03 03:33:19;;;;;;;11.90;5.82;;;;;;;8.90;65.50;99117.47;4305046;33;35053;-77
2022/01/03 03:35:50;;;;;;;9.55;5.85;;;;;;;9.15;64.78;99108.63;4289118;33;33898;-77
2022/01/03 03:38:19;;;;;;;11.73;6.62;;;;;;;9.30;64.27;99098.94;4291327;33;32691;-75
2022/01/03 03:40:49;;;;;;;10.27;5.80;;;;;;;9.19;64.92;99118.94;4290272;33;32538;-73
2022/01/03 03:43:18;;;;;;;11.57;5.05;;;;;;;9.58;63.58;99119.47;4303786;33;35032;-73
2022/01/03 03:45:48;;;;;;;14.05;6.12;;;;;;;9.84;62.75;99108.78;4279258;33;34598;-77
2022/01/03 03:48:19;;;;;;;13.68;5.85;;;;;;;10.09;61.72;99115.44;4304220;33;34296;-74
2022/01/03 03:50:48;;;;;;;13.00;6.55;;;;;;;9.83;61.89;99121.81;4291387;33;34589;-74
2022/01/03 03:53:18;;;;;;;9.23;5.35;;;;;;;9.76;62.42;99120.12;4291549;33;35185;-76
2022/01/03 03:55:48;;;;;;;10.68;5.32;;;;;;;9.67;62.57;99124.56;4291161;33;32608;-77
2022/01/03 03:58:18;;;;;;;11.30;5.97;;;;;;;9.91;61.86;99106.97;4284952;33;33641;-73
2022/01/03 04:00:47;;;;;;;10.05;5.85;;;;;;;9.90;61.79;99100.06;4303755;33;32540;-76
2022/01/03 04:03:54;;;;;;;9.57;5.62;;;;;;;9.29;64.13;99118.00;4303132;33;33989;-76
2022/01/03 04:06:23;;;;;;;13.02;6.45;;;;;;;10.05;61.55;99101.59;4291007;33;35353;-75
2022/01/03 04:08:52;;;;;;;12.20;5.70;;;;;;;9.80;62.08;99125.28;4290081;33;34342;-75
2022/01/03 04:11:21;;;;;;;10.00;5.90;;;;;;;9.49;63.08;99103.97;4299878;33;34676;-74
2022/01/03 04:13:59;;;;;;;8.73;5.78;;;;;;;9.87;61.86;99110.50;4291701;33;35202;-76
2022/01/03 04:16:49;;;;;;;14.48;6.72;;;;;;;9.53;63.07;99116.06;4288509;33;34457;-74
2022/01/03 04:19:24;;;;;;;11.50;5.78;;;;;;;10.29;61.06;99103.03;4279095;33;33541;-74
2022/01/03 04:21:52;;;;;;;10.27;5.82;;;;;;;9.66;62.39;99112.44;4279091;33;33955;-76
2022/01/03 04:24:20;;;;;;;13.45;6.90;;;;;;;10.02;61.59;99122.44;4293524;33;35001;-73
2022/01/03 04:26:49;;;;;;;10.73;5.20;;;;;;;10.17;60.85;99111.00;4278579;33;35315;-75
2022/01/03 04:29:18;;;;;;;10.15;5.45;;;;;;;10.58;59.56;99109.59;4302551;33;34307;-75
2022/01/03 04:31:47;;;;;;;9.77;5.60;;;;;;;10.84;58.73;99124.00;4298852;33;33821;-75
2022/01/03 04:34:20;;;;;;;9.40;4.93;;;;;;;10.78;58.74;99122.31;4289463;33;34398;-75
2022/01/03 04:36:49;;;;;;;12.93;5.30;;;;;;;10.51;59.56;99123.59;4286566;33;35324;-76
2022/01/03 04:39:19;;;;;;;11.12;5.75;;;;;;;10.66;59.07;99123.38;4284888;33;34427;-74
2022/01/03 04:41:47;;;;;;;11.75;6.10;;;;;;;11.18;57.78;99135.56;4299137;33;33814;-73
2022/01/03 04:44:16;;;;;;;12.57;6.40;;;;;;;11.33;57.47;99125.75;4287007;33;35178;-77
2022/01/03 04:46:45;;;;;;;12.98;6.53;;;;;;;11.07;58.19;99114.06;4280558;33;34105;-76
2022/01/03 04:49:13;;;;;;;12.55;7.43;;;;;;;10.99;58.46;99118.50;4276542;33;33959;-76
2022/01/03 04:51:48;;;;;;;11.73;7.05;;;;;;;10.01;61.35;99103.38;4288398;33;33910;-76
2022/01/03 04:54:19;;;;;;;13.02;6.70;;;;;;;9.51;63.30;99107.41;4276170;33;35152;-78
2022/01/03 04:56:48;;;;;;;13.30;7.20;;;;;;;9.71;62.96;99114.16;4277829;33;33099;-76
2022/01/03 04:59:23;;;;;;;11.32;6.28;;;;;;;10.18;61.35;99108.38;4265708;33;33628;-76
2022/01/03 05:02:09;;;;;;;9.30;5.47;;;;;;;10.04;60.90;99100.75;4275891;33;34615;-76
2022/01/03 05:04:44;;;;;;;9.98;5.53;;;;;;;9.03;64.94;99109.56;4269043;33;34265;-76
2022/01/03 05:07:12;;;;;;;11.18;6.05;;;;;;;9.47;63.59;99105.72;4277865;33;34473;-78
2022/01/03 05:09:40;;;;;;;8.88;5.10;;;;;;;9.18;64.05;99093.03;4288977;33;33388;-76
2022/01/03 05:12:08;;;;;;;10.70;5.45;;;;;;;9.40;63.71;99104.06;4277957;33;33662;-77
2022/01/03 05:14:36;;;;;;;10.20;4.90;;;;;;;9.08;65.01;99102.63;4290014;33;36019;-77
2022/01/03 05:17:06;;;;;;;11.95;5.57;;;;;;;9.63;63.22;99096.88;4290312;33;34984;-74
2022/01/03 05:19:40;;;;;;;9.40;4.90;;;;;;;9.74;62.99;99093.28;4289711;33;33583;-75
2022/01/03 05:22:10;;;;;;;7.45;4.40;;;;;;;10.19;61.39;99091.03;4290750;33;33895;-75
2022/01/03 05:24:38;;;;;;;9.80;5.37;;;;;;;9.99;61.99;99081.72;4289809;33;35175;-75
2022/01/03 05:27:06;;;;;;;13.90;5.57;;;;;;;10.73;59.72;99096.34;4290209;33;34544;-74
2022/01/03 05:29:35;;;;;;;10.07;5.40;;;;;;;10.28;61.42;99085.69;4277099;33;33580;-77
2022/01/03 05:32:07;;;;;;;7.47;4.62;;;;;;;10.85;59.13;99079.66;4305332;33;34017;-77
2022/01/03 05:34:35;;;;;;;8.10;4.35;;;;;;;10.31;60.11;99080.47;4300421;33;35337;-76
2022/01/03 05:37:07;;;;;;;7.03;4.20;;;;;;;10.44;60.00;99078.56;4290781;33;34468;-74
2022/01/03 05:39:36;;;;;;;11.02;4.22;;;;;;;10.62;59.39;99069.59;4290009;33;34278;-77
2022/01/03 05:42:04;;;;;;;8.95;4.70;;;;;;;10.93;58.41;99080.41;4263472;33;34068;-77
2022/01/03 05:44:32;;;;;;;7.80;4.03;;;;;;;10.82;58.13;99083.19;4272482;33;35191;-75
2022/01/03 05:47:01;;;;;;;8.27;4.70;;;;;;;11.11;57.82;99081.84;4264942;33;33628;-78
2022/01/03 05:49:36;;;;;;;10.85;5.45;;;;;;;10.80;58.75;99092.78;4293065;33;33372;-77
2022/01/03 05:52:22;;;;;;;7.10;4.20;;;;;;;11.28;56.77;99075.50;4305389;33;34759;-76
2022/01/03 05:54:52;;;;;;;7.57;4.28;;;;;;;10.48;58.73;99082.81;4291226;33;35310;-78
2022/01/03 05:57:20;;;;;;;7.43;4.20;;;;;;;10.87;58.20;99088.34;4305190;33;34467;-76
2022/01/03 05:59:48;;;;;;;9.32;4.97;;;;;;;11.24;57.16;99090.31;4290865;33;33540;-74
2022/01/03 06:02:18;;;;;;;12.80;5.25;;;;;;;11.23;57.03;99082.53;4305572;33;33723;-77
2022/01/03 06:07:17;;;;;;;8.57;4.03;;;;;;;10.69;57.89;99086.00;4304729;33;34584;-75
2022/01/03 06:09:45;;;;;;;8.10;3.85;;;;;;;11.05;57.45;99083.69;4289149;33;33379;-73
2022/01/03 06:12:14;;;;;;;9.13;4.12;;;;;;;10.90;57.94;99085.66;4292452;33;33892;-75
2022/01/03 06:14:44;;;;;;;10.10;4.32;;;;;;;11.00;57.01;99074.22;4302474;33;35573;-74
2022/01/03 06:17:13;;;;;;;7.90;3.80;;;;;;;11.06;57.05;99070.63;4280457;33;33848;-74
2022/01/03 06:19:43;;;;;;;9.27;3.95;;;;;;;11.94;54.99;99066.41;4304577;33;33454;-76
2022/01/03 06:22:12;;;;;;;10.55;4.20;;;;;;;11.54;56.37;99060.22;4305078;33;33964;-75
2022/01/03 06:24:41;;;;;;;6.90;3.65;;;;;;;11.22;57.27;99070.38;4304406;33;35107;-75
2022/01/03 06:27:10;;;;;;;7.57;3.85;;;;;;;11.39;56.58;99086.56;4292561;33;35331;-74
2022/01/03 06:29:39;;;;;;;6.47;3.70;;;;;;;11.31;56.60;99091.06;4304325;33;33674;-74
2022/01/03 06:32:08;;;;;;;8.27;4.47;;;;;;;11.67;55.57;99093.87;4304338;33;34000;-76
2022/01/03 06:34:36;;;;;;;6.12;3.62;;;;;;;11.81;55.33;99104.06;4304164;33;35179;-74
2022/01/03 06:37:05;;;;;;;7.20;3.67;;;;;;;11.79;55.24;99114.53;4305094;33;34560;-75
2022/01/03 06:39:34;;;;;;;6.60;3.60;;;;;;;11.56;55.72;99108.00;4291781;33;33136;-74
2022/01/03 06:42:03;;;;;;;8.88;3.70;;;;;;;10.97;57.20;99112.47;4291835;33;34009;-74
2022/01/03 06:44:32;;;;;;;6.35;2.97;;;;;;;11.28;56.38;99107.63;4304007;33;35162;-75
2022/01/03 06:47:01;;;;;;;6.90;3.65;;;;;;;11.34;56.61;99101.44;4303876;33;34392;-74
2022/01/03 06:49:29;;;;;;;4.78;2.95;;;;;;;11.12;57.11;99099.22;4290151;33;34371;-73
2022/01/03 06:51:57;;;;;;;8.77;3.45;;;;;;;11.66;56.15;99086.94;4304090;33;35125;-75
2022/01/03 06:54:25;;;;;;;5.55;3.78;;;;;;;11.04;58.28;99088.03;4304171;33;35586;-75
2022/01/03 06:56:54;;;;;;;6.47;3.25;;;;;;;10.93;58.94;99079.56;4290766;33;34574;-76
2022/01/03 06:59:26;;;;;;;7.43;3.17;;;;;;;11.44;57.58;99068.25;4290284;33;34249;-73
2022/01/03 07:01:56;;;;;;;8.75;3.42;;;;;;;10.64;60.12;99073.03;4290991;33;33916;-73
2022/01/03 07:04:24;;;;;;;8.68;3.72;;;;;;;10.44;61.34;99065.53;4292472;33;35991;-72
2022/01/03 07:06:52;;;;;;;6.85;3.87;;;;;;;10.54;61.19;99068.88;4290307;33;34985;-73
2022/01/03 07:09:20;;;;;;;6.57;2.85;;;;;;;10.50;61.13;99061.97;4288981;33;34047;-73
2022/01/03 07:11:47;;;;;;;7.20;2.92;;;;;;;10.81;60.14;99058.00;4303512;33;33614;-75
2022/01/03 07:19:37;;;;;;;2.65;1.48;;;;;;;11.18;58.82;99069.56;4292625;33;33327;-73
2022/01/03 07:22:07;;;;;;;3.25;1.60;;;;;;;11.42;58.13;99050.03;4291887;33;34839;-72
2022/01/03 07:24:38;;;;;;;4.80;1.58;;;;;;;11.63;56.59;99053.09;4301881;33;35153;-73
2022/01/03 07:27:08;;;;;;;1.62;1.08;;;;;;;11.97;55.38;99060.28;4291818;33;35107;-73
2022/01/03 07:29:37;;;;;;;3.55;1.25;;;;;;;12.18;54.75;99044.16;4290753;33;33506;-74
2022/01/03 07:32:07;;;;;;;1.48;0.88;;;;;;;12.49;52.71;99049.56;4304629;33;34780;-74
2022/01/03 07:34:35;;;;;;;3.60;1.33;;;;;;;12.62;53.07;99042.28;4278799;33;35048;-74
2022/01/03 07:37:03;;;;;;;3.95;1.08;;;;;;;12.59;52.84;99039.72;4301751;33;34467;-73
2022/01/03 07:39:34;;;;;;;1.40;0.95;;;;;;;12.84;52.43;99033.91;4304031;33;34359;-74
2022/01/03 07:42:03;;;;;;;2.70;1.08;;;;;;;12.98;50.55;99044.88;4290607;33;34066;-75
2022/01/03 07:44:34;;;;;;;0.73;0.70;;;;;;;13.05;50.28;99035.13;4291170;33;35055;-73
2022/01/03 07:47:05;;;;;;;1.92;0.90;;;;;;;13.21;49.62;99039.06;4288750;33;35412;-73
2022/01/03 07:49:34;;;;;;;2.30;1.23;;;;;;;13.31;49.30;99038.81;4277157;33;33370;-74
2022/01/03 07:52:02;;;;;;;1.30;0.80;;;;;;;13.43;49.35;99047.22;4291090;33;33961;-73
2022/01/03 07:54:31;;;;;;;5.25;1.08;;;;;;;13.15;49.96;99043.59;4303971;33;36091;-74
2022/01/03 07:57:00;;;;;;;1.12;0.93;;;;;;;13.30;49.18;99064.09;4277451;33;34148;-73
2022/01/03 07:59:28;;;;;;;2.92;1.27;;;;;;;13.31;48.87;99084.16;4300159;33;33420;-74
2022/01/03 08:01:56;;;;;;;1.00;0.90;;;;;;;13.21;49.61;99085.25;4303697;33;33924;-74
2022/01/03 08:04:25;;;;;;;1.67;0.73;;;;;;;13.43;48.93;99083.84;4279052;33;34353;-72
2022/01/03 08:06:53;;;;;;;2.33;0.93;;;;;;;13.26;49.11;99086.00;4302366;33;34623;-74
2022/01/03 08:09:20;;;;;;;2.35;1.23;;;;;;;13.27;50.09;99085.09;4291079;33;33277;-74
2022/01/03 08:11:50;;;;;;;3.37;1.17;;;;;;;13.20;50.70;99099.22;4300059;33;34676;-75
2022/01/03 08:14:18;;;;;;;1.55;1.02;;;;;;;13.53;49.48;99097.53;4301935;33;35109;-74
2022/01/03 08:16:45;;;;;;;2.35;1.35;;;;;;;13.55;49.75;99098.34;4302672;33;35324;-74
2022/01/03 08:19:16;;;;;;;1.15;1.00;;;;;;;13.41;49.92;99108.31;4304128;33;34257;-73
2022/01/03 08:21:44;;;;;;;2.05;0.80;;;;;;;13.27;50.25;99100.78;4290534;33;33456;-76
2022/01/03 08:24:12;;;;;;;6.30;0.90;;;;;;;12.91;51.21;99108.66;4290527;33;34247;-75
2022/01/03 08:26:41;;;;;;;1.00;0.80;;;;;;;13.15;50.80;99120.28;4303143;33;34576;-74
2022/01/03 08:29:12;;;;;;;1.30;0.93;;;;;;;13.30;50.09;99105.09;4292131;33;33337;-75
2022/01/03 08:31:40;;;;;;;1.90;1.10;;;;;;;12.95;51.25;99119.88;4304269;33;33964;-74
2022/01/03 08:34:09;;;;;;;2.03;0.65;;;;;;;13.03;50.89;99092.66;4303997;33;35192;-75
2022/01/03 08:36:37;;;;;;;1.45;0.88;;;;;;;13.15;50.61;99108.97;4278786;33;34230;-74
2022/01/03 08:39:06;;;;;;;4.82;0.82;;;;;;;13.32;50.32;99100.72;4290260;33;32684;-75
2022/01/03 08:41:34;;;;;;;2.80;1.27;;;;;;;13.43;50.34;99112.62;4304817;33;34606;-74
2022/01/03 08:44:03;;;;;;;2.83;1.23;;;;;;;13.15;51.60;99116.81;4292738;33;34985;-74
2022/01/03 08:46:31;;;;;;;3.60;1.45;;;;;;;13.25;51.07;99118.25;4290423;33;34437;-74
2022/01/03 08:48:59;;;;;;;1.37;0.85;;;;;;;13.37;50.61;99125.84;4290991;33;32850;-75
2022/01/03 08:51:27;;;;;;;2.83;0.70;;;;;;;13.01;51.35;99115.38;4304477;33;34637;-74
2022/01/03 08:53:55;;;;;;;0.65;0.60;;;;;;;12.94;51.38;99119.03;4279931;33;35066;-74
2022/01/03 08:56:23;;;;;;;2.60;0.90;;;;;;;13.08;51.57;99130.00;4286447;33;34457;-75
2022/01/03 08:58:52;;;;;;;1.50;1.02;;;;;;;12.82;52.43;99140.22;4305701;33;33594;-75
2022/01/03 09:01:20;;;;;;;2.78;1.08;;;;;;;12.94;52.86;99154.78;4291394;33;34893;-75
2022/01/03 09:03:51;;;;;;;2.08;1.15;;;;;;;12.80;52.49;99137.66;4291743;33;35048;-73
2022/01/03 09:06:20;;;;;;;1.73;1.20;;;;;;;12.98;52.53;99135.50;4304667;33;34325;-75
2022/01/03 09:08:48;;;;;;;1.75;0.93;;;;;;;12.81;53.73;99156.78;4292713;33;33887;-74
2022/01/03 09:11:16;;;;;;;1.33;1.00;;;;;;;13.08;52.51;99126.53;4304834;33;34668;-74
2022/01/03 09:13:44;;;;;;;0.98;0.88;;;;;;;13.20;52.24;99125.37;4292534;33;35906;-74
2022/01/03 09:16:12;;;;;;;2.05;1.35;;;;;;;13.00;52.16;99136.31;4291661;33;34154;-72
2022/01/03 09:18:40;;;;;;;4.30;1.20;;;;;;;12.82;52.76;99140.22;4292296;33;33779;-72
2022/01/03 09:21:08;;;;;;;1.55;1.10;;;;;;;12.73;53.45;99153.50;4291579;33;34634;-72
2022/01/03 09:23:40;;;;;;;1.50;1.10;;;;;;;12.70;53.22;99147.44;4305543;33;35984;-73
2022/01/03 09:28:58;;;;;;;;;;;;;;;12.52;53.15;99140.88;4294825;33;33619;-75
2022/01/03 09:31:33;;;;;;;6.82;1.20;;;;;;;12.46;53.88;99148.00;4304791;33;35109;-75
2022/01/03 09:34:04;;;;;;;2.28;1.02;;;;;;;12.49;54.15;99127.03;4292457;33;35696;-74
2022/01/03 09:36:32;;;;;;;1.60;1.00;;;;;;;12.54;54.19;99133.00;4303733;33;35190;-74
2022/01/03 09:39:01;;;;;;;2.37;0.85;;;;;;;12.41;54.27;99118.50;4291941;33;34349;-74
2022/01/03 09:41:29;;;;;;;2.37;1.55;;;;;;;12.37;53.93;99122.06;4303675;33;34796;-73
2022/01/03 09:44:03;;;;;;;1.33;0.85;;;;;;;12.09;55.27;99110.47;4280679;33;35040;-74
2022/01/03 09:46:37;;;;;;;1.80;1.05;;;;;;;12.50;53.25;99107.88;4304600;33;34527;-75
2022/01/03 09:49:07;;;;;;;1.58;0.80;;;;;;;12.30;53.93;99111.78;4292484;33;33477;-74
2022/01/03 09:51:35;;;;;;;1.83;1.23;;;;;;;11.90;56.35;99109.97;4279615;33;33188;-73
2022/01/03 09:54:08;;;;;;;0.98;0.80;;;;;;;12.25;53.93;99108.41;4305448;33;35974;-73
2022/01/03 09:56:38;;;;;;;0.80;0.80;;;;;;;12.25;54.73;99113.62;4303969;33;34434;-73
2022/01/03 09:59:06;;;;;;;2.50;1.05;;;;;;;11.99;55.09;99110.69;4305396;33;33955;-73
2022/01/03 10:01:41;;;;;;;1.40;1.00;;;;;;;12.08;54.19;99113.09;4292163;33;33999;-74
2022/01/03 10:04:11;;;;;;;2.47;0.90;;;;;;;12.24;54.51;99106.66;4305091;33;36623;-74
2022/01/03 10:06:39;;;;;;;1.33;0.82;;;;;;;12.36;53.91;99105.53;4291420;33;34565;-72
2022/01/03 10:09:07;;;;;;;0.80;0.80;;;;;;;12.41;53.25;99102.84;4305393;33;33476;-72
2022/01/03 10:11:35;;;;;;;2.42;1.10;;;;;;;12.32;53.76;99114.34;4290298;33;34030;-72
2022/01/03 10:14:11;;;;;;;1.75;1.10;;;;;;;12.14;54.58;99099.91;4303927;33;35154;-71
2022/01/03 10:16:41;;;;;;;2.47;1.05;;;;;;;11.89;55.36;99110.81;4303772;33;35197;-72
2022/01/03 10:19:20;;;;;;;1.60;0.80;;;;;;;12.29;54.23;99104.81;4304151;33;33449;-73
2022/01/03 10:21:50;;;;;;;0.98;0.88;;;;;;;12.38;54.09;99095.06;4304360;33;33817;-73
2022/01/03 10:24:31;;;;;;;1.90;0.95;;;;;;;12.41;53.76;99097.62;4297376;33;256710;-73
2022/01/03 10:26:59;;;;;;;1.92;1.10;;;;;;;12.02;55.11;99063.63;4303782;33;34228;-73
2022/01/03 10:29:30;;;;;;;1.35;0.90;;;;;;;12.15;55.02;99065.09;4305124;33;34176;-72
2022/01/03 10:32:01;;;;;;;3.12;1.05;;;;;;;11.97;55.79;99055.06;4281759;33;33420;-72
2022/01/03 10:34:32;;;;;;;2.85;0.93;;;;;;;11.95;56.38;99052.50;4286518;33;35119;-73
2022/01/03 10:37:10;;;;;;;2.15;1.27;;;;;;;12.48;54.70;99055.66;4277864;33;34464;-73
2022/01/03 10:39:38;;;;;;;2.65;1.00;;;;;;;12.75;54.04;99060.28;4290722;33;34299;-72
2022/01/03 10:42:18;;;;;;;1.50;0.85;;;;;;;12.00;55.68;99062.81;4287080;33;34743;-72
2022/01/03 10:44:47;;;;;;;1.83;1.10;;;;;;;11.93;56.30;99055.13;4292046;33;34941;-72
2022/01/03 10:47:30;;;;;;;2.35;1.00;;;;;;;12.29;55.68;99063.03;4291004;33;35291;-72
2022/01/03 10:49:58;;;;;;;2.10;1.10;;;;;;;12.65;55.28;99065.72;4292046;33;33581;-72
2022/01/03 10:52:28;;;;;;;1.92;1.00;;;;;;;12.16;55.92;99077.28;4289968;33;33981;-71
2022/01/03 10:55:14;;;;;;;1.95;0.82;;;;;;;11.95;56.54;99069.00;4303949;33;35140;-74
2022/01/03 10:57:54;;;;;;;2.90;1.42;;;;;;;12.58;55.19;99069.34;4303682;33;35125;-73
2022/01/03 11:00:37;;;;;;;1.60;1.00;;;;;;;12.10;56.00;99082.59;4292032;33;34323;-72
2022/01/03 11:05:51;;;;;;;2.55;1.05;;;;;;;12.93;54.23;99061.56;4278318;33;34954;-71
2022/01/03 11:11:09;;;;;;;2.30;1.10;;;;;;;12.92;53.89;99046.78;4292445;33;34241;-73
2022/01/03 11:13:39;;;;;;;1.77;1.00;;;;;;;13.03;53.65;99048.22;4291862;33;34677;-73
2022/01/03 11:16:08;;;;;;;2.12;1.00;;;;;;;13.23;53.72;99049.47;4290865;33;35035;-73
2022/01/03 11:18:44;;;;;;;5.57;1.33;;;;;;;12.96;54.11;99053.66;4304797;33;34438;-73
2022/01/03 11:21:16;;;;;;;1.75;1.02;;;;;;;12.94;54.17;99050.25;4304079;33;34263;-72
2022/01/03 11:24:02;;;;;;;1.45;0.90;;;;;;;12.61;53.85;99047.53;4304917;33;34482;-72
2022/01/03 11:26:33;;;;;;;1.37;0.80;;;;;;;12.87;53.87;99055.59;4288295;33;35051;-72
2022/01/03 11:29:02;;;;;;;2.85;1.33;;;;;;;13.12;53.48;99065.44;4292666;33;34378;-73
2022/01/03 11:31:33;;;;;;;2.90;1.00;;;;;;;13.58;51.37;99058.16;4303846;33;34129;-72
2022/01/03 11:34:01;;;;;;;2.47;0.82;;;;;;;13.49;52.19;99045.34;4304796;33;34875;-72
2022/01/03 11:36:50;;;;;;;1.12;1.00;;;;;;;13.20;52.75;99053.03;4293097;33;35072;-72
2022/01/03 11:39:21;;;;;;;1.90;1.37;;;;;;;13.49;51.96;99050.56;4291698;33;34455;-72
2022/01/03 11:41:51;;;;;;;4.97;1.20;;;;;;;13.45;51.85;99039.34;4300921;33;34288;-72
2022/01/03 11:44:19;;;;;;;1.50;0.88;;;;;;;13.21;51.42;99040.81;4292174;33;36019;-73
2022/01/03 11:46:47;;;;;;;1.02;0.90;;;;;;;13.23;51.85;99045.09;4303453;33;35833;-72
2022/01/03 11:49:16;;;;;;;1.42;0.90;;;;;;;12.48;53.48;99058.28;4290697;33;34364;-72
2022/01/03 11:51:45;;;;;;;2.03;1.00;;;;;;;12.39;53.55;99042.81;4303767;33;34269;-72
2022/01/03 11:54:16;;;;;;;11.75;1.60;;;;;;;12.47;53.53;99063.53;4291591;33;34874;-72
2022/01/03 11:56:50;;;;;;;1.30;0.90;;;;;;;13.03;51.84;99056.06;4290969;33;35054;-73
2022/01/03 12:03:36;;;;;;;2.40;1.02;;;;;;;12.47;53.01;99061.75;4291368;33;32948;-72
2022/01/03 12:05:08;;;;;;;2.97;0.90;;;;;;;12.87;52.48;99070.44;4289608;33;33227;-72
2022/01/03 12:07:56;;;;;;;0.95;0.80;;;;;;;13.09;51.97;99065.50;4303419;33;35831;-72
2022/01/03 12:10:24;;;;;;;2.62;0.82;;;;;;;12.60;53.24;99064.97;4303275;33;34366;-72
2022/01/03 12:12:59;;;;;;;1.42;0.90;;;;;;;13.02;52.10;99057.00;4303446;33;33514;-74